createdAt,value
2023-02-02T00:00:48.090Z,8.54
2023-02-02T00:05:52.106Z,8.46
2023-02-02T00:10:53.596Z,8.56
2023-02-02T00:15:55.082Z,8.56
2023-02-02T00:20:56.506Z,8.62
2023-02-02T00:25:57.951Z,8.60
2023-02-02T00:30:59.443Z,8.55
2023-02-02T00:36:00.925Z,8.50
2023-02-02T00:41:02.347Z,8.56
2023-02-02T00:46:03.971Z,8.53
2023-02-02T00:51:05.692Z,8.46
2023-02-02T00:56:07.179Z,8.63
2023-02-02T01:01:17.155Z,8.52
2023-02-02T01:06:18.681Z,8.52
2023-02-02T01:11:21.037Z,8.32
2023-02-02T01:16:22.844Z,8.16
2023-02-02T01:21:24.559Z,8.26
2023-02-02T01:26:26.077Z,8.23
2023-02-02T01:31:27.615Z,8.18
2023-02-02T01:36:29.939Z,8.13
2023-02-02T01:41:31.353Z,8.13
2023-02-02T01:46:35.223Z,8.30
2023-02-02T01:51:40.269Z,8.40
2023-02-02T01:56:50.177Z,8.15
2023-02-02T02:01:52.673Z,8.08
2023-02-02T02:06:54.382Z,8.16
2023-02-02T02:11:56.088Z,8.36
2023-02-02T02:17:25.703Z,8.24
2023-02-02T02:23:10.451Z,8.37
2023-02-02T02:28:38.160Z,8.35
2023-02-02T02:33:45.899Z,8.40
2023-02-02T02:38:58.266Z,8.45
2023-02-02T02:44:06.498Z,8.56
2023-02-02T02:49:12.921Z,8.56
2023-02-02T02:54:19.660Z,8.51
2023-02-02T02:59:37.119Z,8.47
2023-02-02T03:04:46.074Z,8.38
2023-02-02T03:09:49.488Z,8.34
2023-02-02T03:14:50.907Z,8.30
2023-02-02T03:19:52.388Z,8.47
2023-02-02T03:24:54.027Z,8.51
2023-02-02T03:29:55.607Z,8.38
2023-02-02T03:34:56.997Z,8.33
2023-02-02T03:39:58.448Z,8.41
2023-02-02T03:44:59.932Z,8.41
2023-02-02T03:50:01.356Z,8.55
2023-02-02T03:55:02.903Z,8.52
2023-02-02T04:00:05.247Z,8.58
2023-02-02T04:05:13.540Z,8.61
2023-02-02T04:10:15.034Z,8.58
2023-02-02T04:15:16.559Z,8.55
2023-02-02T04:20:18.051Z,8.62
2023-02-02T04:25:19.503Z,8.58
2023-02-02T04:30:21.073Z,8.55
2023-02-02T04:35:22.892Z,8.68
2023-02-02T04:40:24.646Z,8.62
2023-02-02T04:45:26.501Z,8.65
2023-02-02T04:50:28.485Z,8.66
2023-02-02T04:55:30.059Z,8.60
2023-02-02T05:00:31.566Z,8.69
2023-02-02T05:05:33.090Z,8.45
2023-02-02T05:10:34.521Z,8.47
2023-02-02T05:15:36.008Z,8.40
2023-02-02T05:20:37.420Z,8.38
2023-02-02T05:25:38.840Z,8.38
2023-02-02T05:30:40.434Z,8.37
2023-02-02T05:35:41.897Z,8.35
2023-02-02T05:40:43.358Z,8.40
2023-02-02T05:45:44.936Z,8.51
2023-02-02T05:50:50.164Z,8.47
2023-02-02T05:55:51.591Z,8.32
2023-02-02T06:00:55.025Z,8.40
2023-02-02T06:05:57.937Z,8.22
2023-02-02T06:10:59.405Z,8.33
2023-02-02T06:16:00.884Z,8.38
2023-02-02T06:21:05.615Z,8.28
2023-02-02T06:26:08.162Z,8.16
2023-02-02T06:31:11.415Z,8.21
2023-02-02T06:36:12.996Z,8.07
2023-02-02T06:41:14.444Z,8.16
2023-02-02T06:46:16.501Z,8.11
2023-02-02T06:51:18.163Z,7.91
2023-02-02T06:56:19.598Z,8.04
2023-02-02T07:01:21.466Z,8.01
2023-02-02T07:06:28.136Z,8.05
2023-02-02T07:11:39.475Z,8.05
2023-02-02T07:16:45.233Z,8.14
2023-02-02T07:21:46.665Z,8.25
2023-02-02T07:26:48.170Z,8.15
2023-02-02T07:31:49.738Z,8.24
2023-02-02T07:36:51.199Z,8.18
2023-02-02T07:41:52.636Z,8.15
2023-02-02T07:47:05.441Z,8.18
2023-02-02T07:52:07.033Z,8.36
2023-02-02T07:57:08.548Z,8.19
2023-02-02T08:02:10.216Z,8.16
2023-02-02T08:07:12.535Z,8.22
2023-02-02T08:12:15.196Z,8.23
2023-02-02T08:17:17.039Z,8.35
2023-02-02T08:22:20.339Z,8.49
2023-02-02T08:27:21.898Z,8.54
2023-02-02T08:32:23.402Z,8.53
2023-02-02T08:37:24.870Z,8.65
2023-02-02T08:42:26.299Z,8.50
2023-02-02T08:47:30.654Z,8.52
2023-02-02T08:52:32.237Z,8.52
2023-02-02T08:57:34.402Z,8.48
2023-02-02T09:02:35.948Z,8.18
2023-02-02T09:07:37.430Z,8.23
2023-02-02T09:12:38.870Z,8.23
2023-02-02T09:17:40.498Z,8.26
2023-02-02T09:22:41.994Z,8.29
2023-02-02T09:27:43.418Z,8.33
2023-02-02T09:32:45.629Z,8.48
2023-02-02T09:37:47.165Z,8.30
2023-02-02T09:42:56.908Z,8.36
2023-02-02T09:48:25.894Z,8.22
2023-02-02T09:53:54.829Z,8.26
2023-02-02T09:59:13.682Z,8.06
2023-02-02T10:04:20.418Z,8.39
2023-02-02T10:09:40.395Z,8.37
2023-02-02T10:15:00.021Z,8.23
2023-02-02T10:20:05.914Z,8.45
2023-02-02T10:25:12.899Z,8.51
2023-02-02T10:30:19.990Z,8.69
2023-02-02T10:35:21.519Z,8.78
2023-02-02T10:41:04.635Z,8.66
2023-02-02T10:46:31.999Z,8.82
2023-02-02T10:51:33.945Z,8.83
2023-02-02T10:56:39.533Z,8.91
2023-02-02T11:01:41.123Z,8.85
2023-02-02T11:06:52.109Z,8.97
2023-02-02T11:12:00.637Z,9.01
2023-02-02T11:17:06.141Z,8.96
2023-02-02T11:22:25.213Z,8.96
2023-02-02T11:27:32.266Z,8.94
2023-02-02T11:32:34.206Z,9.08
2023-02-02T11:37:37.705Z,9.12
2023-02-02T11:42:46.546Z,9.32
2023-02-02T11:47:51.637Z,9.22
2023-02-02T11:52:53.374Z,9.44
2023-02-02T11:58:24.807Z,9.60
2023-02-02T12:03:35.436Z,9.70
2023-02-02T12:08:37.333Z,9.79
2023-02-02T12:13:59.075Z,9.65
2023-02-02T12:19:17.753Z,9.56
2023-02-02T12:24:33.778Z,9.60
2023-02-02T12:29:50.555Z,9.80
2023-02-02T12:35:02.247Z,9.78
2023-02-02T12:40:25.488Z,9.91
2023-02-02T12:45:45.503Z,10.08
2023-02-02T12:51:09.925Z,10.15
2023-02-02T12:56:36.398Z,9.96
2023-02-02T13:02:08.056Z,9.75
2023-02-02T13:07:32.339Z,9.84
2023-02-02T13:12:41.294Z,9.72
2023-02-02T13:17:50.930Z,9.68
2023-02-02T13:22:58.490Z,9.83
2023-02-02T13:28:01.945Z,9.76
2023-02-02T13:33:16.217Z,9.78
2023-02-02T13:38:26.516Z,9.75
2023-02-02T13:43:46.861Z,9.92
2023-02-02T13:48:57.773Z,9.88
2023-02-02T13:54:25.161Z,10.02
2023-02-02T13:59:48.883Z,9.91
2023-02-02T14:04:58.792Z,9.94
2023-02-02T14:10:00.307Z,9.86
2023-02-02T14:15:02.360Z,9.96
2023-02-02T14:20:08.531Z,9.94
2023-02-02T14:25:36.840Z,9.89
2023-02-02T14:30:40.026Z,10.02
2023-02-02T14:35:41.478Z,9.92
2023-02-02T14:40:55.767Z,9.91
2023-02-02T14:46:15.522Z,9.86
2023-02-02T14:51:21.897Z,9.83
2023-02-02T14:56:41.361Z,9.84
2023-02-02T15:01:52.746Z,9.69
2023-02-02T15:06:55.579Z,9.96
2023-02-02T15:12:03.005Z,9.84
2023-02-02T15:17:07.463Z,9.98
2023-02-02T15:22:26.801Z,10.00
2023-02-02T15:27:31.258Z,10.08
2023-02-02T15:32:33.997Z,10.23
2023-02-02T15:37:41.504Z,10.04
2023-02-02T15:42:52.761Z,10.10
2023-02-02T15:47:56.428Z,10.01
2023-02-02T15:52:58.784Z,9.74
2023-02-02T15:58:01.762Z,9.92
2023-02-02T16:03:10.356Z,9.86
2023-02-02T16:08:36.323Z,9.85
2023-02-02T16:13:40.083Z,9.72
2023-02-02T16:18:41.520Z,9.59
2023-02-02T16:23:43.271Z,9.39
2023-02-02T16:28:46.638Z,9.41
2023-02-02T16:33:48.262Z,9.21
2023-02-02T16:38:52.245Z,9.30
2023-02-02T16:43:54.355Z,9.30
2023-02-02T16:48:59.204Z,9.31
2023-02-02T16:54:06.632Z,9.25
2023-02-02T16:59:21.914Z,9.10
2023-02-02T17:04:27.808Z,9.16
2023-02-02T17:09:43.039Z,9.11
2023-02-02T17:15:04.421Z,9.04
2023-02-02T17:20:06.140Z,9.04
2023-02-02T17:25:14.891Z,9.13
2023-02-02T17:30:18.489Z,8.95
2023-02-02T17:35:23.805Z,9.03
2023-02-02T17:40:25.801Z,8.94
2023-02-02T17:45:34.131Z,8.92
2023-02-02T17:50:37.111Z,8.96
2023-02-02T17:55:41.850Z,8.99
2023-02-02T18:00:51.334Z,8.92
2023-02-02T18:05:52.883Z,8.98
2023-02-02T18:10:54.546Z,9.01
2023-02-02T18:15:56.265Z,8.96
2023-02-02T18:20:58.842Z,8.92
2023-02-02T18:26:12.056Z,8.96
2023-02-02T18:31:16.286Z,8.96
2023-02-02T18:36:20.583Z,9.12
2023-02-02T18:41:22.169Z,9.05
2023-02-02T18:46:23.716Z,9.03
2023-02-02T18:51:25.959Z,9.11
2023-02-02T18:56:28.805Z,9.12
2023-02-02T19:01:30.425Z,9.05
2023-02-02T19:06:50.754Z,9.00
2023-02-02T19:11:54.833Z,9.01
2023-02-02T19:17:09.151Z,8.92
2023-02-02T19:22:24.805Z,9.04
2023-02-02T19:27:26.925Z,8.96
2023-02-02T19:32:32.597Z,8.95
2023-02-02T19:37:43.153Z,8.94
2023-02-02T19:42:47.103Z,9.04
2023-02-02T19:47:50.993Z,9.11
2023-02-02T19:52:54.257Z,9.16
2023-02-02T19:58:15.754Z,9.16
2023-02-02T20:03:23.367Z,9.20
2023-02-02T20:08:34.033Z,9.26
2023-02-02T20:13:47.374Z,9.32
2023-02-02T20:18:54.539Z,9.24
2023-02-02T20:23:55.972Z,9.36
2023-02-02T20:29:20.458Z,9.40
2023-02-02T20:34:35.160Z,9.36
2023-02-02T20:39:40.663Z,9.39
2023-02-02T20:44:42.877Z,9.38
2023-02-02T20:49:45.018Z,9.37
2023-02-02T20:54:46.629Z,9.35
2023-02-02T20:59:48.237Z,9.45
2023-02-02T21:04:51.042Z,9.37
2023-02-02T21:09:53.038Z,9.37
2023-02-02T21:14:54.664Z,9.41
2023-02-02T21:19:56.170Z,9.47
2023-02-02T21:24:57.700Z,9.47
2023-02-02T21:29:59.246Z,9.53
2023-02-02T21:35:00.871Z,9.45
2023-02-02T21:40:12.580Z,9.41
2023-02-02T21:45:19.770Z,9.45
2023-02-02T21:50:28.645Z,9.44
2023-02-02T21:55:36.561Z,9.46
2023-02-02T22:00:39.055Z,9.54
2023-02-02T22:05:40.492Z,9.55
2023-02-02T22:10:43.040Z,9.45
2023-02-02T22:15:49.441Z,9.54
2023-02-02T22:20:54.340Z,9.47
2023-02-02T22:25:58.119Z,9.53
2023-02-02T22:31:00.556Z,9.46
2023-02-02T22:36:03.015Z,9.51
2023-02-02T22:41:06.375Z,9.52
2023-02-02T22:46:07.953Z,9.66
2023-02-02T22:51:09.509Z,9.55
2023-02-02T22:56:10.969Z,9.62
2023-02-02T23:01:13.586Z,9.55
2023-02-02T23:06:15.009Z,9.62
2023-02-02T23:11:16.544Z,9.69
2023-02-02T23:16:18.057Z,9.61
2023-02-02T23:21:19.608Z,9.65
2023-02-02T23:26:21.833Z,9.66
2023-02-02T23:31:23.443Z,9.67
2023-02-02T23:36:24.929Z,9.68
2023-02-02T23:41:26.405Z,9.71
2023-02-02T23:46:28.292Z,9.67
2023-02-02T23:51:29.910Z,9.71
2023-02-02T23:56:31.752Z,9.73
